createdAt,value
2023-01-10T00:00:55.621Z,65.93
2023-01-10T00:03:28.079Z,65.91
2023-01-10T00:05:55.014Z,65.58
2023-01-10T00:08:22.335Z,65.78
2023-01-10T00:10:49.199Z,65.24
2023-01-10T00:13:26.010Z,64.96
2023-01-10T00:15:56.939Z,65.39
2023-01-10T00:18:25.385Z,64.82
2023-01-10T00:20:53.045Z,65.24
2023-01-10T00:23:23.117Z,64.81
2023-01-10T00:25:54.261Z,63.76
2023-01-10T00:28:26.566Z,64.30
2023-01-10T00:31:04.461Z,64.05
2023-01-10T00:33:32.252Z,63.89
2023-01-10T00:35:59.884Z,64.34
2023-01-10T00:38:27.168Z,63.81
2023-01-10T00:40:54.139Z,63.51
2023-01-10T00:43:40.029Z,62.97
2023-01-10T00:46:08.579Z,62.97
2023-01-10T00:48:36.127Z,62.85
2023-01-10T00:51:03.474Z,63.02
2023-01-10T00:53:30.983Z,62.98
2023-01-10T00:55:57.964Z,62.64
2023-01-10T00:58:25.291Z,62.62
2023-01-10T01:00:52.283Z,62.84
2023-01-10T01:03:23.122Z,63.11
2023-01-10T01:05:50.315Z,62.99
2023-01-10T01:08:19.274Z,62.69
2023-01-10T01:10:46.801Z,62.61
2023-01-10T01:13:15.620Z,63.02
2023-01-10T01:15:42.571Z,63.29
2023-01-10T01:18:11.871Z,62.52
2023-01-10T01:20:41.102Z,62.47
2023-01-10T01:23:08.983Z,62.96
2023-01-10T01:25:35.961Z,62.72
2023-01-10T01:28:03.769Z,63.27
2023-01-10T01:30:30.797Z,63.25
2023-01-10T01:32:58.176Z,63.53
2023-01-10T01:35:25.328Z,63.53
2023-01-10T01:37:53.946Z,63.98
2023-01-10T01:40:22.386Z,63.91
2023-01-10T01:42:55.477Z,63.89
2023-01-10T01:45:34.865Z,63.92
2023-01-10T01:48:13.147Z,64.02
2023-01-10T01:50:44.992Z,63.31
2023-01-10T01:53:17.417Z,63.89
2023-01-10T01:55:45.974Z,63.66
2023-01-10T01:58:18.397Z,63.91
2023-01-10T02:00:45.626Z,63.70
2023-01-10T02:03:14.538Z,63.41
2023-01-10T02:05:43.986Z,63.58
2023-01-10T02:08:13.444Z,63.64
2023-01-10T02:10:46.519Z,63.13
2023-01-10T02:13:16.297Z,63.16
2023-01-10T02:15:43.427Z,63.23
2023-01-10T02:18:10.992Z,63.66
2023-01-10T02:20:57.788Z,63.09
2023-01-10T02:24:14.145Z,63.30
2023-01-10T02:27:03.849Z,63.14
2023-01-10T02:30:04.065Z,63.02
2023-01-10T02:32:56.449Z,62.57
2023-01-10T02:35:40.056Z,62.08
2023-01-10T02:38:20.093Z,61.83
2023-01-10T02:40:52.284Z,61.90
2023-01-10T02:43:23.789Z,61.69
2023-01-10T02:45:59.164Z,61.80
2023-01-10T02:48:27.508Z,61.79
2023-01-10T02:50:59.826Z,61.80
2023-01-10T02:53:32.444Z,61.81
2023-01-10T02:56:12.854Z,62.00
2023-01-10T02:58:53.575Z,62.04
2023-01-10T03:01:31.189Z,61.65
2023-01-10T03:04:10.023Z,61.82
2023-01-10T03:06:41.712Z,61.44
2023-01-10T03:09:16.520Z,61.82
2023-01-10T03:11:47.095Z,61.49
2023-01-10T03:14:20.914Z,61.47
2023-01-10T03:16:54.102Z,61.35
2023-01-10T03:19:26.887Z,61.68
2023-01-10T03:21:58.160Z,61.17
2023-01-10T03:24:31.579Z,61.44
2023-01-10T03:27:05.627Z,61.52
2023-01-10T03:29:42.287Z,61.28
2023-01-10T03:32:13.742Z,61.72
2023-01-10T03:34:42.147Z,61.85
2023-01-10T03:37:14.800Z,62.16
2023-01-10T03:39:50.897Z,62.31
2023-01-10T03:42:26.012Z,62.34
2023-01-10T03:45:01.866Z,62.37
2023-01-10T03:47:34.614Z,62.35
2023-01-10T03:50:06.618Z,61.79
2023-01-10T03:52:35.360Z,61.00
2023-01-10T03:55:03.523Z,60.93
2023-01-10T03:57:31.085Z,60.03
2023-01-10T03:59:59.022Z,59.71
2023-01-10T04:02:27.898Z,59.86
2023-01-10T04:04:54.786Z,59.73
2023-01-10T04:07:23.555Z,59.71
2023-01-10T04:09:50.582Z,59.92
2023-01-10T04:12:18.144Z,60.14
2023-01-10T04:14:47.986Z,59.82
2023-01-10T04:17:16.587Z,59.78
2023-01-10T04:19:43.596Z,59.62
2023-01-10T04:22:11.487Z,59.51
2023-01-10T04:24:40.287Z,59.54
2023-01-10T04:27:07.254Z,59.59
2023-01-10T04:29:34.202Z,59.90
2023-01-10T04:32:01.502Z,60.02
2023-01-10T04:34:28.394Z,60.21
2023-01-10T04:36:55.562Z,60.11
2023-01-10T04:39:22.534Z,60.26
2023-01-10T04:41:51.101Z,60.35
2023-01-10T04:44:18.203Z,60.48
2023-01-10T04:46:45.817Z,60.98
2023-01-10T04:49:12.971Z,61.27
2023-01-10T04:51:40.739Z,61.13
2023-01-10T04:54:07.745Z,61.40
2023-01-10T04:56:35.088Z,61.48
2023-01-10T04:59:03.415Z,61.69
2023-01-10T05:01:30.789Z,61.78
2023-01-10T05:03:57.932Z,62.08
2023-01-10T05:06:26.389Z,62.30
2023-01-10T05:08:53.359Z,62.31
2023-01-10T05:11:20.553Z,62.42
2023-01-10T05:13:48.199Z,62.47
2023-01-10T05:16:17.264Z,62.29
2023-01-10T05:18:44.857Z,62.89
2023-01-10T05:21:13.605Z,62.84
2023-01-10T05:23:40.611Z,62.35
2023-01-10T05:26:09.528Z,62.11
2023-01-10T05:28:36.681Z,62.69
2023-01-10T05:31:06.505Z,62.64
2023-01-10T05:33:35.152Z,62.45
2023-01-10T05:36:03.270Z,62.64
2023-01-10T05:38:30.860Z,62.32
2023-01-10T05:40:59.086Z,62.15
2023-01-10T05:43:26.788Z,62.95
2023-01-10T05:45:54.068Z,62.59
2023-01-10T05:48:21.088Z,63.04
2023-01-10T05:50:51.402Z,62.79
2023-01-10T05:53:18.829Z,62.70
2023-01-10T05:55:53.075Z,62.69
2023-01-10T05:58:20.163Z,62.57
2023-01-10T06:00:47.794Z,62.57
2023-01-10T06:03:14.918Z,63.67
2023-01-10T06:05:42.410Z,63.57
2023-01-10T06:08:10.950Z,63.45
2023-01-10T06:10:38.199Z,63.54
2023-01-10T06:13:05.245Z,64.17
2023-01-10T06:15:35.635Z,64.11
2023-01-10T06:18:02.559Z,64.17
2023-01-10T06:20:29.887Z,64.15
2023-01-10T06:22:58.661Z,65.16
2023-01-10T06:25:27.683Z,64.90
2023-01-10T06:27:54.554Z,64.76
2023-01-10T06:30:21.700Z,69.57
2023-01-10T06:32:48.879Z,66.17
2023-01-10T06:35:18.087Z,67.46
2023-01-10T06:37:44.966Z,67.81
2023-01-10T06:40:12.853Z,66.82
2023-01-10T06:42:41.745Z,65.47
2023-01-10T06:45:09.216Z,65.72
2023-01-10T06:47:36.105Z,65.15
2023-01-10T06:50:03.927Z,65.69
2023-01-10T06:52:31.216Z,66.03
2023-01-10T06:54:58.406Z,65.93
2023-01-10T06:57:25.425Z,66.08
2023-01-10T06:59:53.992Z,65.86
2023-01-10T07:02:20.915Z,66.52
2023-01-10T07:04:48.334Z,66.78
2023-01-10T07:07:15.201Z,66.36
2023-01-10T07:09:42.336Z,66.80
2023-01-10T07:12:09.187Z,67.17
2023-01-10T07:14:36.688Z,66.79
2023-01-10T07:17:05.048Z,67.00
2023-01-10T07:19:32.746Z,72.13
2023-01-10T07:21:59.687Z,72.64
2023-01-10T07:24:27.090Z,75.02
2023-01-10T07:26:55.268Z,72.11
2023-01-10T07:29:22.454Z,71.01
2023-01-10T07:31:49.392Z,69.75
2023-01-10T07:34:17.974Z,70.86
2023-01-10T07:36:44.888Z,69.92
2023-01-10T07:39:12.064Z,70.38
2023-01-10T07:41:39.097Z,70.19
2023-01-10T07:44:06.487Z,71.44
2023-01-10T07:46:33.446Z,71.01
2023-01-10T07:49:00.707Z,70.83
2023-01-10T07:51:28.973Z,70.81
2023-01-10T07:53:56.208Z,70.15
2023-01-10T07:56:23.279Z,69.31
2023-01-10T07:58:50.497Z,69.94
2023-01-10T08:01:17.555Z,69.14
2023-01-10T08:03:46.382Z,68.86
2023-01-10T08:06:16.618Z,68.78
2023-01-10T08:08:46.422Z,68.22
2023-01-10T08:11:14.877Z,68.79
2023-01-10T08:13:43.697Z,68.45
2023-01-10T08:16:14.194Z,68.26
2023-01-10T08:18:45.750Z,67.97
2023-01-10T08:21:14.721Z,69.44
2023-01-10T08:23:42.873Z,68.60
2023-01-10T08:26:13.484Z,68.11
2023-01-10T08:28:41.444Z,67.88
2023-01-10T08:31:10.370Z,68.33
2023-01-10T08:33:40.830Z,68.12
2023-01-10T08:36:17.048Z,67.98
2023-01-10T08:38:44.996Z,67.71
2023-01-10T08:41:14.201Z,67.91
2023-01-10T08:43:41.991Z,67.77
2023-01-10T08:46:09.483Z,67.32
2023-01-10T08:48:37.110Z,67.66
2023-01-10T08:51:09.414Z,67.82
2023-01-10T08:53:38.623Z,67.15
2023-01-10T08:56:06.292Z,67.44
2023-01-10T08:58:34.886Z,67.19
2023-01-10T09:01:04.226Z,67.42
2023-01-10T09:03:31.705Z,66.88
2023-01-10T09:05:59.760Z,66.91
2023-01-10T09:08:27.293Z,67.31
2023-01-10T09:10:54.245Z,66.84
2023-01-10T09:13:21.414Z,66.41
2023-01-10T09:15:52.700Z,66.75
2023-01-10T09:18:22.953Z,67.10
2023-01-10T09:20:51.654Z,66.96
2023-01-10T09:23:22.022Z,66.63
2023-01-10T09:25:50.317Z,66.43
2023-01-10T09:28:18.327Z,66.82
2023-01-10T09:30:45.665Z,66.60
2023-01-10T09:33:14.876Z,66.28
2023-01-10T09:35:42.632Z,66.08
2023-01-10T09:38:11.998Z,65.90
2023-01-10T09:40:44.861Z,66.37
2023-01-10T09:43:20.840Z,66.46
2023-01-10T09:46:01.784Z,66.04
2023-01-10T09:48:38.196Z,65.36
2023-01-10T09:51:18.167Z,65.92
2023-01-10T09:53:46.162Z,65.76
2023-01-10T09:56:15.217Z,65.88
2023-01-10T09:58:43.860Z,65.95
2023-01-10T10:01:17.127Z,66.81
2023-01-10T10:03:54.068Z,65.92
2023-01-10T10:06:22.946Z,65.92
2023-01-10T10:08:50.763Z,65.64
2023-01-10T10:11:34.263Z,65.78
2023-01-10T10:14:06.935Z,65.95
2023-01-10T10:16:44.824Z,65.97
2023-01-10T10:19:26.880Z,65.75
2023-01-10T10:22:02.424Z,65.43
2023-01-10T10:24:39.869Z,65.81
2023-01-10T10:27:18.215Z,65.94
2023-01-10T10:30:16.655Z,65.68
2023-01-10T10:32:58.348Z,66.03
2023-01-10T10:35:30.773Z,65.44
2023-01-10T10:38:05.877Z,66.74
2023-01-10T10:40:37.547Z,65.46
2023-01-10T10:43:14.138Z,66.45
2023-01-10T10:45:45.563Z,67.59
2023-01-10T10:48:16.213Z,68.29
2023-01-10T10:50:51.898Z,68.38
2023-01-10T10:53:19.856Z,68.73
2023-01-10T10:55:48.009Z,68.78
2023-01-10T10:58:15.172Z,68.79
2023-01-10T11:00:42.634Z,69.53
2023-01-10T11:03:24.182Z,69.19
2023-01-10T11:05:53.375Z,69.43
2023-01-10T11:08:22.465Z,69.40
2023-01-10T11:10:54.175Z,68.97
2023-01-10T11:13:32.332Z,67.87
2023-01-10T11:16:00.856Z,67.63
2023-01-10T11:18:29.834Z,67.08
2023-01-10T11:21:01.152Z,67.46
2023-01-10T11:23:37.002Z,66.80
2023-01-10T11:26:05.443Z,65.99
2023-01-10T11:28:34.115Z,66.20
2023-01-10T11:31:02.802Z,66.73
2023-01-10T11:33:35.729Z,66.25
2023-01-10T11:36:07.619Z,66.35
2023-01-10T11:38:35.401Z,66.17
2023-01-10T11:41:05.093Z,66.03
2023-01-10T11:43:34.596Z,66.24
2023-01-10T11:46:04.586Z,65.55
2023-01-10T11:49:04.328Z,65.49
2023-01-10T11:51:36.955Z,64.97
2023-01-10T11:54:06.752Z,65.02
2023-01-10T11:56:36.486Z,64.68
2023-01-10T11:59:12.543Z,64.48
2023-01-10T12:01:42.285Z,64.92
2023-01-10T12:04:17.123Z,65.15
2023-01-10T12:06:49.093Z,64.68
2023-01-10T12:09:39.721Z,64.69
2023-01-10T12:12:16.336Z,64.64
2023-01-10T12:14:43.345Z,64.78
2023-01-10T12:17:19.385Z,64.44
2023-01-10T12:19:46.278Z,64.33
2023-01-10T12:22:16.120Z,64.37
2023-01-10T12:24:47.160Z,63.86
2023-01-10T12:27:16.827Z,64.39
2023-01-10T12:29:47.571Z,64.59
2023-01-10T12:32:21.564Z,63.95
2023-01-10T12:34:56.172Z,64.13
2023-01-10T12:37:34.863Z,63.88
2023-01-10T12:40:11.120Z,64.04
2023-01-10T12:43:06.483Z,63.87
2023-01-10T12:45:39.160Z,63.97
2023-01-10T12:48:15.328Z,63.67
2023-01-10T12:50:46.484Z,63.65
2023-01-10T12:53:28.189Z,63.31
2023-01-10T12:55:58.746Z,63.68
2023-01-10T12:58:42.860Z,63.67
2023-01-10T13:01:14.921Z,63.73
2023-01-10T13:03:44.252Z,63.09
2023-01-10T13:06:21.502Z,63.27
2023-01-10T13:08:51.826Z,64.04
2023-01-10T13:11:22.639Z,63.84
2023-01-10T13:13:57.811Z,63.80
2023-01-10T13:16:33.781Z,63.43
2023-01-10T13:19:05.141Z,63.77
2023-01-10T13:21:34.221Z,63.37
2023-01-10T13:24:05.831Z,63.52
2023-01-10T13:26:54.591Z,63.69
2023-01-10T13:29:23.122Z,64.04
2023-01-10T13:31:57.379Z,63.45
2023-01-10T13:34:27.870Z,64.59
2023-01-10T13:36:58.382Z,63.84
2023-01-10T13:39:33.337Z,64.15
2023-01-10T13:42:49.730Z,64.59
2023-01-10T13:45:23.367Z,64.02
2023-01-10T13:48:27.523Z,64.31
2023-01-10T13:51:06.804Z,63.66
2023-01-10T13:53:59.984Z,64.10
2023-01-10T13:56:37.591Z,63.98
2023-01-10T13:59:29.292Z,63.60
2023-01-10T14:02:18.718Z,64.52
2023-01-10T14:04:50.966Z,64.45
2023-01-10T14:07:24.166Z,64.04
2023-01-10T14:09:53.059Z,64.36
2023-01-10T14:12:29.193Z,64.29
2023-01-10T14:15:00.548Z,64.27
2023-01-10T14:17:30.309Z,63.89
2023-01-10T14:20:16.035Z,64.67
2023-01-10T14:22:57.299Z,64.35
2023-01-10T14:25:26.909Z,64.61
2023-01-10T14:27:58.598Z,63.95
2023-01-10T14:30:29.495Z,64.30
2023-01-10T14:33:01.163Z,64.43
2023-01-10T14:35:33.234Z,64.21
2023-01-10T14:38:03.216Z,64.11
2023-01-10T14:40:40.865Z,64.35
2023-01-10T14:43:15.302Z,64.04
2023-01-10T14:45:50.512Z,63.44
2023-01-10T14:48:23.579Z,63.94
2023-01-10T14:50:50.819Z,63.33
2023-01-10T14:53:29.899Z,64.78
2023-01-10T14:55:56.866Z,66.37
2023-01-10T14:58:25.799Z,67.41
2023-01-10T15:00:55.116Z,67.76
2023-01-10T15:03:24.968Z,68.13
2023-01-10T15:05:53.733Z,67.81
2023-01-10T15:08:22.950Z,69.16
2023-01-10T15:10:51.915Z,69.00
2023-01-10T15:13:24.324Z,69.60
2023-01-10T15:15:53.222Z,68.08
2023-01-10T15:18:36.313Z,68.45
2023-01-10T15:21:04.416Z,67.89
2023-01-10T15:23:36.174Z,67.27
2023-01-10T15:26:06.104Z,67.06
2023-01-10T15:28:36.062Z,66.61
2023-01-10T15:31:06.385Z,66.53
2023-01-10T15:33:37.038Z,66.52
2023-01-10T15:36:05.467Z,66.40
2023-01-10T15:38:36.235Z,65.44
2023-01-10T15:41:06.083Z,65.88
2023-01-10T15:43:35.994Z,65.96
2023-01-10T15:46:06.259Z,65.79
2023-01-10T15:48:35.223Z,65.71
2023-01-10T15:51:04.272Z,65.39
2023-01-10T15:53:55.663Z,65.14
2023-01-10T15:56:26.236Z,64.96
2023-01-10T15:58:53.838Z,65.55
2023-01-10T16:01:22.825Z,64.73
2023-01-10T16:03:52.897Z,64.76
2023-01-10T16:06:24.084Z,64.98
2023-01-10T16:08:53.875Z,64.74
2023-01-10T16:11:43.156Z,65.11
2023-01-10T16:14:10.672Z,65.18
2023-01-10T16:16:39.152Z,64.80
2023-01-10T16:19:06.498Z,65.10
2023-01-10T16:21:38.827Z,65.03
2023-01-10T16:24:08.418Z,64.64
2023-01-10T16:26:37.123Z,64.85
2023-01-10T16:29:04.354Z,64.58
2023-01-10T16:31:31.372Z,65.04
2023-01-10T16:34:00.046Z,64.65
2023-01-10T16:36:26.919Z,64.63
2023-01-10T16:38:54.222Z,65.18
2023-01-10T16:41:39.490Z,64.85
2023-01-10T16:44:06.716Z,65.42
2023-01-10T16:46:33.705Z,65.70
2023-01-10T16:49:05.552Z,65.33
2023-01-10T16:51:33.878Z,65.45
2023-01-10T16:54:01.665Z,65.53
2023-01-10T16:56:29.217Z,65.57
2023-01-10T16:58:57.232Z,65.97
2023-01-10T17:01:26.538Z,66.35
2023-01-10T17:03:55.284Z,66.73
2023-01-10T17:06:23.564Z,66.88
2023-01-10T17:08:50.682Z,67.37
2023-01-10T17:11:22.115Z,66.97
2023-01-10T17:13:49.596Z,66.79
2023-01-10T17:16:19.443Z,67.20
2023-01-10T17:18:47.020Z,67.01
2023-01-10T17:21:16.470Z,67.46
2023-01-10T17:23:45.935Z,67.30
2023-01-10T17:26:15.298Z,67.20
2023-01-10T17:28:42.611Z,67.70
2023-01-10T17:31:09.630Z,67.03
2023-01-10T17:33:36.801Z,67.23
2023-01-10T17:36:03.953Z,67.54
2023-01-10T17:38:31.470Z,67.83
2023-01-10T17:41:04.843Z,67.48
2023-01-10T17:43:32.566Z,67.56
2023-01-10T17:45:59.748Z,67.53
2023-01-10T17:48:27.071Z,68.01
2023-01-10T17:50:57.362Z,67.56
2023-01-10T17:53:25.078Z,67.82
2023-01-10T17:55:52.396Z,67.80
2023-01-10T17:58:21.606Z,68.25
2023-01-10T18:00:49.092Z,68.00
2023-01-10T18:03:16.727Z,68.31
2023-01-10T18:05:50.831Z,67.93
2023-01-10T18:08:18.565Z,67.93
2023-01-10T18:10:45.694Z,67.59
2023-01-10T18:13:14.422Z,67.76
2023-01-10T18:15:47.661Z,68.30
2023-01-10T18:18:15.365Z,67.82
2023-01-10T18:20:43.553Z,67.70
2023-01-10T18:23:21.415Z,68.63
2023-01-10T18:25:53.524Z,68.27
2023-01-10T18:28:35.172Z,68.02
2023-01-10T18:31:09.820Z,68.34
2023-01-10T18:33:37.469Z,68.22
2023-01-10T18:36:05.403Z,68.60
2023-01-10T18:38:32.804Z,68.73
2023-01-10T18:40:59.967Z,68.94
2023-01-10T18:43:29.937Z,68.87
2023-01-10T18:46:00.649Z,69.25
2023-01-10T18:48:29.497Z,69.13
2023-01-10T18:50:59.043Z,69.65
2023-01-10T18:53:29.455Z,69.34
2023-01-10T18:55:58.017Z,69.91
2023-01-10T18:58:26.866Z,69.55
2023-01-10T19:00:54.611Z,69.68
2023-01-10T19:03:23.466Z,69.64
2023-01-10T19:05:52.008Z,69.47
2023-01-10T19:08:19.329Z,69.75
2023-01-10T19:11:11.364Z,69.02
2023-01-10T19:13:34.368Z,69.89
2023-01-10T19:16:09.040Z,69.18
2023-01-10T19:18:36.114Z,68.93
2023-01-10T19:21:04.645Z,69.04
2023-01-10T19:23:32.870Z,69.17
2023-01-10T19:25:59.911Z,69.38
2023-01-10T19:28:29.643Z,69.97
2023-01-10T19:31:04.055Z,70.01
2023-01-10T19:33:32.838Z,70.14
2023-01-10T19:35:59.907Z,69.51
2023-01-10T19:38:28.745Z,70.05
2023-01-10T19:40:56.500Z,69.76
2023-01-10T19:43:24.985Z,70.18
2023-01-10T19:45:52.352Z,70.57
2023-01-10T19:48:19.690Z,71.02
2023-01-10T19:50:46.747Z,70.16
2023-01-10T19:53:14.491Z,70.16
2023-01-10T19:55:42.756Z,69.64
2023-01-10T19:58:09.967Z,69.34
2023-01-10T20:00:36.952Z,69.88
2023-01-10T20:03:05.219Z,70.66
2023-01-10T20:05:34.340Z,71.00
2023-01-10T20:08:02.047Z,71.25
2023-01-10T20:10:29.172Z,71.54
2023-01-10T20:12:57.917Z,71.49
2023-01-10T20:15:24.962Z,72.01
2023-01-10T20:17:52.227Z,71.90
2023-01-10T20:20:21.105Z,71.85
2023-01-10T20:22:48.355Z,74.35
2023-01-10T20:25:15.248Z,74.35
2023-01-10T20:27:42.573Z,73.77
2023-01-10T20:30:14.066Z,73.50
2023-01-10T20:32:41.400Z,73.37
2023-01-10T20:35:09.010Z,72.80
2023-01-10T20:37:36.495Z,72.17
2023-01-10T20:40:03.513Z,72.12
2023-01-10T20:42:32.469Z,72.21
2023-01-10T20:44:59.593Z,72.13
2023-01-10T20:47:28.929Z,71.66
2023-01-10T20:49:55.882Z,71.52
2023-01-10T20:52:23.150Z,71.59
2023-01-10T20:54:50.452Z,71.72
2023-01-10T20:57:17.722Z,71.39
2023-01-10T20:59:44.794Z,71.78
2023-01-10T21:02:12.070Z,70.89
2023-01-10T21:04:40.553Z,70.94
2023-01-10T21:07:07.693Z,71.45
2023-01-10T21:09:34.636Z,71.05
2023-01-10T21:12:13.861Z,71.70
2023-01-10T21:14:49.405Z,71.76
2023-01-10T21:17:16.641Z,71.68
2023-01-10T21:19:44.893Z,71.34
2023-01-10T21:22:12.111Z,71.40
2023-01-10T21:24:39.005Z,71.92
2023-01-10T21:27:06.272Z,72.14
2023-01-10T21:29:33.137Z,71.61
2023-01-10T21:32:00.519Z,71.59
2023-01-10T21:34:27.784Z,71.08
2023-01-10T21:36:56.965Z,71.10
2023-01-10T21:39:23.914Z,71.11
2023-01-10T21:42:09.465Z,71.81
2023-01-10T21:44:36.586Z,71.18
2023-01-10T21:47:03.890Z,71.14
2023-01-10T21:49:31.944Z,71.22
2023-01-10T21:52:00.546Z,70.44
2023-01-10T21:54:27.504Z,71.01
2023-01-10T21:56:54.756Z,71.48
2023-01-10T21:59:21.947Z,70.86
2023-01-10T22:01:49.105Z,70.84
2023-01-10T22:04:17.377Z,70.85
2023-01-10T22:06:44.863Z,70.31
2023-01-10T22:09:13.195Z,70.74
2023-01-10T22:11:40.468Z,71.01
2023-01-10T22:14:07.408Z,71.61
2023-01-10T22:16:34.581Z,71.34
2023-01-10T22:19:01.878Z,71.25
2023-01-10T22:21:29.204Z,71.44
2023-01-10T22:23:56.064Z,71.00
2023-01-10T22:26:24.557Z,70.89
2023-01-10T22:28:51.545Z,71.34
2023-01-10T22:31:18.761Z,71.10
2023-01-10T22:33:45.920Z,70.99
2023-01-10T22:36:16.301Z,71.06
2023-01-10T22:38:43.699Z,71.25
2023-01-10T22:41:12.421Z,71.02
2023-01-10T22:43:40.974Z,71.07
2023-01-10T22:46:09.626Z,71.08
2023-01-10T22:48:37.022Z,71.56
2023-01-10T22:51:05.687Z,71.07
2023-01-10T22:53:33.656Z,71.27
2023-01-10T22:56:01.545Z,71.15
2023-01-10T22:58:28.474Z,71.29
2023-01-10T23:00:57.392Z,71.83
2023-01-10T23:03:24.491Z,71.55
2023-01-10T23:05:55.191Z,71.75
2023-01-10T23:08:22.186Z,71.66
2023-01-10T23:10:49.423Z,71.03
2023-01-10T23:13:16.555Z,71.18
2023-01-10T23:15:43.764Z,71.42
2023-01-10T23:18:12.038Z,71.73
2023-01-10T23:20:39.279Z,72.06
2023-01-10T23:23:06.134Z,71.92
2023-01-10T23:25:33.307Z,71.88
2023-01-10T23:28:00.219Z,71.83
2023-01-10T23:30:28.937Z,71.81
2023-01-10T23:32:55.916Z,72.00
2023-01-10T23:35:24.510Z,71.80
2023-01-10T23:37:52.259Z,71.84
2023-01-10T23:40:19.555Z,71.93
2023-01-10T23:42:46.550Z,71.62
2023-01-10T23:45:13.749Z,71.88
2023-01-10T23:47:40.677Z,71.67
2023-01-10T23:50:09.191Z,71.42
2023-01-10T23:52:37.466Z,71.22
2023-01-10T23:55:05.519Z,71.37
2023-01-10T23:57:32.383Z,71.56
